Tiempo atmosférico en la estación meteorológica de Alajar, Huelva (572 m.)



Fecha
DESCASC
Temp. máxima en grados centígrados (hora)
DESCASC
Temp. mínima en grados centígrados (hora)
DESCASC
Temp. media en grados centígrados
DESCASC
Racha de viento máxima en m/sg (hora)
DESCASC
Velocidad máxima media en intervalos de 10 minutos(hora)
DESCASC
Precipitaciones diarias en mm
DESCASC
Precipitaciones de 00:00 a 06:00 en mm
DESCASC
Precipitaciones de 06:00 a 12:00 en mm
DESCASC
Precipitaciones de 12:00 a 18:00 en mm
DESCASC
Precipitaciones de 18:00 a 24:00 en mm
DESCASC
02-04-2020 14.4 (18:40) 5.2 (07:20) 9.8 10.28 (17:50) 6.39 (07:40) 3.8 3.6 0 0.2 0
01-04-2020 10.9 (11:50) 3.3 (08:10) 7.1 10 (14:30) 5.28 (14:40) 3.2 0 0 2.4 0.8
31-03-2020 13.7 (14:00) 6 (00:00) 9.8 10.56 (14:40) 6.11 (14:40) 33 23.8 2 7.2 0
30-03-2020 14.1 (14:20) 7.2 (00:00) 10.7 10.56 (15:20) 6.11 (15:10) 15.8 0 0 13.8 2
29-03-2020 17.9 (15:10) 6.6 (00:00) 12.2 6.39 (15:20) 3.89 (15:20) 0 0 0 0 0
28-03-2020 17.3 (17:00) 6 (00:00) 11.6 7.78 (12:10) 4.17 (12:20) 0 0 0 0 0
27-03-2020 16.7 (14:30) 4.7 (00:00) 10.7 10 (09:40) 6.39 (22:00) 0 0 0 0 0
26-03-2020 18.2 (16:20) 7.2 (00:00) 12.7 11.39 (18:50) 6.39 (10:20) 0.2 0 0.2 0 0
25-03-2020 17 (16:40) 9.3 (00:00) 13.2 7.5 (18:50) 4.72 (18:50) 0.8 0 0 0 0.8
24-03-2020 17.3 (16:40) 7.5 (00:00) 12.4 10.56 (07:40) 6.11 (06:10) 0 0 0 0 0
23-03-2020 16.5 (14:40) 7.2 (00:00) 11.8 11.11 (21:40) 6.39 (21:30) 0.4 0 0 0.2 0.2
22-03-2020 14.2 (15:30) 5.3 (07:30) 9.8 6.67 (16:50) 3.61 (23:00) 3 2.6 0.4 0 0
21-03-2020 9.6 (12:30) 6.3 (00:00) 8 10 (12:30) 6.11 (12:40) 15.8 3 0 11.2 1.6
20-03-2020 13.1 (00:40) 9.1 (00:00) 11.1 10 (20:50) 4.72 (21:00) 27.6 0 0 2.4 25.2
19-03-2020 18.7 (14:40) 9.9 (00:00) 14.3 10 (07:50) 6.67 (07:40) 0 0 0 0 0
18-03-2020 21.5 (16:00) 12 (00:00) 16.8 13.89 (02:30) 6.11 (09:30) 0 0 0 0 0
17-03-2020 14.1 (17:10) 4.1 (00:00) 9.1 14.17 (22:30) 6.67 (13:30) 2.2 0 1.8 0.2 0.2
16-03-2020 12.2 (16:00) 3.3 (00:00) 7.7 19.17 (00:40) 11.94 (00:50) 4 0 0 0 4
15-03-2020 21.1 (15:10) 8.4 (00:00) 14.8 18.89 (23:50) 13.06 (23:50) 0 0 0 0 0
14-03-2020 21.8 (15:10) 9.5 (00:00) 15.6 6.39 (00:10) 4.17 (01:40) 0 0 0 0 0
13-03-2020 23.6 (15:00) 10.9 (05:40) 17.3 8.33 (23:20) 5.28 (23:20) 0 0 0 0 0
12-03-2020 20.1 (14:40) 11.7 (00:00) 15.9 6.11 (13:10) 3.61 (13:20) 0 0 0 0 0
11-03-2020 27.1 (16:50) 14.3 (00:00) 20.7 8.06 (10:40) 4.72 (12:30) 0 0 0 0 0
10-03-2020 27.2 (16:00) 13.2 (00:00) 20.2 15.28 (02:20) 10 (03:00) 0 0 0 0 0
09-03-2020 20.8 (14:00) 8.4 (00:00) 14.6 16.67 (07:30) 11.11 (07:30) 0 0 0 0 0
08-03-2020 21.7 (15:10) 7.1 (00:00) 14.4 14.72 (20:40) 9.44 (21:50) 0 0 0 0 0
07-03-2020 19.6 (15:30) 6 (00:00) 12.8 16.94 (03:30) 11.39 (02:50) 0 0 0 0 0
06-03-2020 14.1 (15:30) 7.5 (00:00) 10.8 15 (23:40) 9.17 (23:30) 0 0 0 0 0
05-03-2020 15.4 (16:20) 8.3 (00:00) 11.8 13.33 (13:10) 6.39 (00:40) 0.2 0 0.2 0 0

Gráficas

Temp. máximas Temp. mínimas Temp. medias Precipitaciones Rachas de viento máximas Velocidades máximas media en intervalos de 10 minutos

Datos horarios

Fecha y hora oficial Temperatura (ºC) Velocidad del viento (km/h) Dirección del viento Racha (km/h) Dirección de racha Precipitación (mm) Presión (hPa) Tendencia (hPa) Humedad (%)
2020-04-03 23:00:00 10.6 8 Este 13 Nordeste 0 948 0.7 72
2020-04-03 22:00:00 11.7 8 Nordeste 15 Este 0 947.5 0.3 68
2020-04-03 21:00:00 14.6 7 Este 21 Sur 0 947.2 0.1 55
2020-04-03 20:00:00 16.7 9 Sur 18 Sur 0 947.3 -0.1 47
2020-04-03 19:00:00 16.5 7 Sur 27 Sur 0 947.2 -0.8 50
2020-04-03 18:00:00 19.6 7 Sur 22 Sur 0 947.1 -1.5 41
2020-04-03 17:00:00 20 11 Sudoeste 26 Sudoeste 0 947.4 -1.7 44
2020-04-03 16:00:00 19.7 10 Sudoeste 24 Sur 0 948 -1.5 42
2020-04-03 15:00:00 19.3 8 Sur 21 Sur 0 948.6 -1.3 46
2020-04-03 14:00:00 17.2 5 Noroeste 18 Sudoeste 0 949.1 -0.4 43
2020-04-03 13:00:00 17.1 8 Sur 18 Sudoeste 0 949.5 0.4 45
2020-04-03 12:00:00 16.6 9 Sudoeste 18 Sudoeste 0 949.9 1.3 52
2020-04-03 11:00:00 15.6 7 Sudoeste 13 Sudoeste 0 949.5 1.3 51
2020-04-03 10:00:00 13.4 2 Noroeste 5 Norte 0 949.1 1.4 63
2020-04-03 09:00:00 9.6 5 Nordeste 14 Norte 0 948.6 0.9 77
2020-04-03 08:00:00 10.2 12 Norte 20 Norte 0 948.2 0.4 72
2020-04-03 07:00:00 10.7 14 Norte 23 Norte 0 947.7 -0.3 71
2020-04-03 06:00:00 10.9 15 Norte 25 Norte 0 947.7 -0.8 69
2020-04-03 05:00:00 10.8 16 Norte 32 Nordeste 0 947.8 -1.2 74
2020-04-03 04:00:00 10.9 25 Nordeste 34 Nordeste 0 948 -1.2 79
2020-04-03 03:00:00 10.7 25 Norte 37 Norte 0 948.5 -0.7 79
2020-04-03 02:00:00 10.7 21 Norte 35 Norte 0 949 0 78
2020-04-03 01:00:00 10.6 18 Norte 25 Norte 0 949.2 0.7 74
2020-04-03 00:00:00 10.5 12 Noroeste 20 Noroeste 0 949.2 1.5 71
2020-04-02 23:00:00 10.2 15 Norte 21 Norte 0 949 1.5 72
2020-04-02 22:00:00 9.3 10 Norte 12 Norte 0 948.5 1.4 75
2020-04-02 21:00:00 10.7 9 Norte 18 Norte 0 947.7 1.1 68
2020-04-02 20:00:00 13.5 8 Norte 28 Norte 0 947.5 1 53
2020-04-02 19:00:00 13.6 15 Nordeste 32 Norte 0 947.1 0.9 53
2020-04-02 18:00:00 13.9 10 Norte 37 Norte 0 946.6 0.6 56
2020-04-02 17:00:00 12.9 18 Norte 34 Norte 0 946.5 0.8 58
2020-04-02 16:00:00 12.7 12 Nordeste 34 Nordeste 0.2 946.2 0.6 60
2020-04-02 15:00:00 12.8 10 Nordeste 32 Nordeste 0 946 0.6 58
2020-04-02 14:00:00 11.7 7 Nordeste 37 Nordeste 0 945.7 1.1 68
2020-04-02 13:00:00 10 21 Norte 37 Norte 0 945.6 1.7 69
2020-04-02 12:00:00 9.8 14 Norte 32 Nordeste 0 945.4 2.1 76
2020-04-02 11:00:00 8.6 8 Nordeste 36 Nordeste 0 944.6 2.1 80
2020-04-02 10:00:00 7.2 13 Norte 27 Nordeste 0 943.9 1.6 92
2020-04-02 09:00:00 5.6 17 Nordeste 26 Norte 0 943.3 0.8 100
2020-04-02 08:00:00 5.2 21 Norte 32 Norte 0 942.5 -0.1 100
2020-04-02 07:00:00 5.5 18 Norte 29 Norte 0 942.3 -0.7 100
2020-04-02 06:00:00 5.8 11 Norte 26 Norte 0 942.5 -1.2 100
2020-04-02 05:00:00 5.6 4 Noroeste 15 Noroeste 0 942.6 -1.3 100
2020-04-02 04:00:00 5.9 7 Noroeste 13 Noroeste 0 943 -1 100
2020-04-02 03:00:00 6.9 5 Noroeste 13 Noroeste 0.2 943.7 -0.5 100
2020-04-02 02:00:00 6.8 7 Noroeste 19 Noroeste 2 943.9 -0.6 100
2020-04-02 01:00:00 7.9 5 Oeste 25 Sudoeste 1.4 944 -0.3 100
2020-04-02 00:00:00 8.1 12 Sudoeste 25 Sur 0.4 944.2 0.2 100
2020-04-01 23:00:00 8.1 8 Sudoeste 29 Sudoeste 0.4 944.5 0.5 100
2020-04-01 22:00:00 8.3 8 Sur 30 Sudoeste 0 944.3 0.1 100
2020-04-01 21:00:00 8.8 12 Sudoeste 33 Sur 0 944 -0.5 92
2020-04-01 20:00:00 9.2 11 Sur 23 Sur 0 944 -1 96
2020-04-01 19:00:00 9.1 9 Sur 24 Sur 0 944.2 -1.1 100
2020-04-01 18:00:00 9.3 9 Sur 21 Sudoeste 0.2 944.5 -1.1 99
2020-04-01 17:00:00 8.3 7 Sudoeste 28 Sur 1.4 945 -0.4 100
2020-04-01 16:00:00 8.3 8 Sur 20 Sudoeste 0.4 945.3 -0.6 100
2020-04-01 15:00:00 8.1 13 Sudoeste 36 Sudoeste 0.4 945.6 -0.4 100
2020-04-01 14:00:00 10.3 10 Sudoeste 22 Sudoeste 0 945.4 -0.2 73
2020-04-01 13:00:00 10.1 7 Sudoeste 24 Sur 0 945.9 0.4 76
2020-04-01 12:00:00 10 12 Sudoeste 23 Sudoeste 0 946 0.9 72
2020-04-01 11:00:00 8.6 6 Sudoeste 14 Sudoeste 0 945.6 1.3 74
2020-04-01 10:00:00 8 3 Sur 6 Sur 0 945.5 1.6 74
2020-04-01 09:00:00 3.7 3 Noroeste 9 Oeste 0 945.1 1.5 95
2020-04-01 08:00:00 3.4 3 Oeste 13 Norte 0 944.3 0.7 87
2020-04-01 07:00:00 4.2 6 Noroeste 16 Norte 0 943.9 0.2 85
2020-04-01 06:00:00 4.9 5 Noroeste 18 Noroeste 0 943.6 -0.2 91
2020-04-01 05:00:00 4 5 Noroeste 11 Noroeste 0 943.6 -0.3 100
2020-04-01 04:00:00 4.3 5 Oeste 12 Noroeste 0 943.7 -0.2 97
2020-04-01 03:00:00 5.1 4 Noroeste 15 Norte 0 943.8 0.3 100
2020-04-01 02:00:00 5.3 4 Noroeste 8 Oeste 0 943.9 1 100
2020-04-01 01:00:00 5.6 3 Oeste 12 Noroeste 0 943.9 2.3 100
2020-04-01 00:00:00 6.5 10 Norte 18 Noroeste 0 943.5 3 100
2020-03-31 23:00:00 6.9 4 Noroeste 18 Noroeste 0 942.9 3 100
2020-03-31 22:00:00 7.7 14 Norte 23 Norte 0 941.6 2.4 100
2020-03-31 21:00:00 8.5 4 Norte 21 Oeste 0 940.5 1.8 95
2020-03-31 20:00:00 10.7 11 Noroeste 25 Oeste 0 939.9 1.8 84
2020-03-31 19:00:00 11.9 10 Noroeste 24 Noroeste 0 939.2 1.5 94
2020-03-31 18:00:00 11.5 11 Sudoeste 18 Sudoeste 0.2 938.7 1 100
2020-03-31 17:00:00 10.5 7 Sudoeste 18 Sudoeste 3 938.1 1 100
2020-03-31 16:00:00 10.8 6 Sudoeste 26 Noroeste 3 937.7 0.2 100
2020-03-31 15:00:00 10.3 12 Oeste 38 Sudoeste 1 937.7 0.4 96
2020-03-31 14:00:00 13.7 18 Sudoeste 33 Sudoeste 0 937.1 0 84
2020-03-31 13:00:00 10.9 14 Sudoeste 30 Sudoeste 0 937.5 0.7 100
2020-03-31 12:00:00 10.5 11 Sudoeste 28 Sudoeste 0 937.3 1.2 100
2020-03-31 11:00:00 9.1 9 Sur 21 Sur 0 937.1 1.6 100
2020-03-31 10:00:00 8.6 7 Sudoeste 14 Sur 0 936.8 1.9 100
2020-03-31 09:00:00 8.2 2 Sudoeste 13 Oeste 0 936.1 1.6 100
2020-03-31 08:00:00 8.1 4 Oeste 14 Norte 1.2 935.5 0.3 100
2020-03-31 07:00:00 8.5 6 Oeste 9 Noroeste 0.8 934.9 -1.1 100
2020-03-31 06:00:00 8.3 4 Sudeste 11 Sudoeste 4 934.5 -1.9 100
2020-03-31 05:00:00 8.5 4 Nordeste 12 Sudeste 8.6 935.2 -1.7 100
2020-03-31 04:00:00 8.5 9 Sudeste 26 Sudeste 3.4 936 -2 100
2020-03-31 03:00:00 8.5 6 Sur 20 Sudeste 5.2 936.4 -2.7 100
2020-03-31 02:00:00 8.2 8 Sudeste 21 Este 2.4 936.9 -2.3 100
2020-03-31 01:00:00 8.1 9 Este 21 Sudeste 0.2 938 -1.7 100
2020-03-31 00:00:00 8.2 10 Sudeste 19 Sudeste 0 939.1 -1.3 100
2020-03-30 23:00:00 8.4 6 Este 20 Este 0 939.2 -1.4 100
2020-03-30 22:00:00 8 6 Este 14 Este 0 939.7 -1.8 100
2020-03-30 21:00:00 8.3 7 Sudeste 14 Sudeste 0 940.4 -1.7 100
2020-03-30 20:00:00 9 7 Sudeste 13 Sur 1.6 940.6 -2.3 100
2020-03-30 19:00:00 9.5 5 Sudeste 10 Sur 0.4 941.5 -2 100
2020-03-30 18:00:00 9.3 4 Noroeste 19 Sudoeste 4.2 942.1 -1.4 100
2020-03-30 17:00:00 9.7 2 Norte 7 Sudoeste 3.6 942.9 -1.3 100
2020-03-30 16:00:00 9.8 0 Calma 38 Sudoeste 6 943.5 -1.4 100
2020-03-30 15:00:00 13.4 12 Sudoeste 30 Sudoeste 0 943.5 -1.8 65
2020-03-30 14:00:00 13.6 9 Sur 21 Sudeste 0 944.2 -1.3 73
2020-03-30 13:00:00 12.6 9 Sur 21 Sur 0 944.9 -0.8 79
2020-03-30 12:00:00 12.5 9 Sur 17 Sur 0 945.3 -0.7 83
2020-03-30 11:00:00 10.9 9 Sudeste 15 Sudeste 0 945.5 -0.5 95
2020-03-30 10:00:00 9.5 4 Sudeste 7 Sudeste 0 945.7 -0.2 100
2020-03-30 09:00:00 8.1 0 Calma 9 Nordeste 0 946 -0.4 100
2020-03-30 08:00:00 7.4 3 Noroeste 8 Nordeste 0 946 -1.1 100
2020-03-30 07:00:00 7.7 6 Nordeste 8 Nordeste 0 945.9 -1.9 100
2020-03-30 06:00:00 7.3 4 Nordeste 9 Nordeste 0 946.4 -2.1 100
2020-03-30 05:00:00 7.5 3 Noroeste 13 Nordeste 0 947.1 -1.5 100
2020-03-30 04:00:00 7.9 4 Este 6 Noroeste 0 947.8 -1.5 100
2020-03-30 03:00:00 8.1 2 Norte 5 Noroeste 0 948.5 -1 100
2020-03-30 02:00:00 7.9 3 Nordeste 8 Nordeste 0 948.6 -1.3 100
2020-03-30 01:00:00 8.8 5 Nordeste 9 Nordeste 0 949.3 -0.6 96
2020-03-30 00:00:00 9.8 3 Norte 7 Nordeste 0 949.5 -0.2 89
2020-03-29 23:00:00 10.6 3 Este 6 Norte 0 949.9 0.4 87
2020-03-29 22:00:00 11.8 4 Noroeste 10 Norte 0 949.9 0.4 82
2020-03-29 21:00:00 13 8 Oeste 21 Oeste 0 949.7 0 76
2020-03-29 20:00:00 14.3 9 Sudoeste 21 Sudoeste 0 949.5 -0.3 65
2020-03-29 19:00:00 15 8 Sudoeste 13 Sudoeste 0 949.5 -0.9 60
2020-03-29 18:00:00 14.9 10 Sur 22 Sudoeste 0 949.7 -1.3 62
2020-03-29 17:00:00 16.6 8 Oeste 22 Sudoeste 0 949.8 -1.6 53
2020-03-29 16:00:00 16.4 9 Sudoeste 23 Sudoeste 0 950.4 -1.4 53
2020-03-29 15:00:00 17 8 Sudoeste 23 Sur 0 951 -1.1 56
2020-03-29 14:00:00 16.8 11 Sudoeste 22 Sur 0 951.4 -0.7 55
2020-03-29 13:00:00 16 6 Sur 18 Sudoeste 0 951.8 0.2 59
2020-03-29 12:00:00 14.5 9 Sudoeste 17 Sudoeste 0 952.1 0.4 61
2020-03-29 11:00:00 13.6 4 Sur 11 Oeste 0 952.1 0.8 68
2020-03-29 10:00:00 10.6 5 Oeste 9 Oeste 0 951.6 0.5 88
2020-03-29 09:00:00 7.3 4 Noroeste 8 Oeste 0 951.7 0.5 100
2020-03-29 08:00:00 7.5 2 Norte 9 Noroeste 0 951.3 -0.1 100
2020-03-29 07:00:00 7.8 3 Norte 10 Norte 0 951.1 -0.7 100
2020-03-29 06:00:00 8 5 Noroeste 9 Oeste 0 951.2 -1 100
2020-03-29 05:00:00 7 4 Noroeste 7 Noroeste 0 951.4 -0.9 100
2020-03-29 03:00:00 7.3 2 Noroeste 5 Sur 0 952.2 0.4 93
2020-03-29 01:00:00 7.9 0 Calma 5 Noroeste 0 952.3 0.9 87
2020-03-29 00:00:00 8.4 3 Oeste 7 Nordeste 0 952 1.2 87
2020-03-28 23:00:00 9.1 0 Calma 6 Oeste 0 951.8 1.8 89
2020-03-28 22:00:00 10.3 4 Noroeste 8 Norte 0 951.4 1.9 82
2020-03-28 21:00:00 11 4 Noroeste 10 Oeste 0 950.8 1.8 75
2020-03-28 20:00:00 13.3 3 Este 13 Sur 0 950 1.4 56
2020-03-28 19:00:00 15.2 4 Sur 16 Sur 0 949.5 0.9 50
2020-03-28 18:00:00 16.2 10 Sudoeste 21 Sur 0 949 0.1 44
2020-03-28 17:00:00 17.1 9 Sur 23 Sur 0 948.6 -0.4 43
2020-03-28 16:00:00 16.8 10 Sur 22 Sur 0 948.6 -0.5 39
2020-03-28 15:00:00 15.2 7 Sudeste 22 Sur 0 948.9 -0.1 52
2020-03-28 14:00:00 16.6 11 Sur 27 Sudoeste 0 949 0 49
2020-03-28 13:00:00 13.6 10 Sur 28 Sur 0 949.1 0.6 57
2020-03-28 12:00:00 14.5 14 Sur 27 Sudeste 0 949 1.2 56
2020-03-28 11:00:00 12.8 10 Sudeste 21 Sur 0 949 1.6 65
2020-03-28 10:00:00 9.8 6 Sudeste 16 Sudeste 0 948.5 1.9 77
2020-03-28 09:00:00 8.3 8 Sudeste 14 Sudeste 0 947.8 1.5 87
2020-03-28 08:00:00 7.8 4 Sudeste 11 Nordeste 0 947.4 1.4 92
2020-03-28 07:00:00 8.1 7 Este 15 Este 0 946.6 0.7 85
2020-03-28 06:00:00 8.3 5 Este 18 Este 0 946.3 0.4 86
2020-03-28 05:00:00 8.3 10 Este 19 Este 0 946 0 85
2020-03-28 04:00:00 7.3 8 Este 15 Este 0 945.9 -0.3 78
2020-03-28 03:00:00 6.2 5 Nordeste 10 Nordeste 0 945.9 -0.2 79
2020-03-28 02:00:00 6.6 5 Norte 9 Nordeste 0 946 0.6 75
2020-03-28 01:00:00 7.3 3 Nordeste 17 Nordeste 0 946.2 1.4 75
2020-03-28 00:00:00 7.6 5 Este 17 Este 0 946.1 1.8 88
2020-03-27 23:00:00 8.6 6 Sudeste 30 Norte 0 945.4 1.9 80
2020-03-27 22:00:00 8.9 23 Norte 32 Norte 0 944.8 1.7 79
2020-03-27 21:00:00 9.7 20 Norte 30 Norte 0 944.3 1.6 76
2020-03-27 20:00:00 11 16 Norte 27 Norte 0 943.5 1.2 70
2020-03-27 19:00:00 13 12 Norte 23 Norte 0 943.1 0.8 59
2020-03-27 18:00:00 14.5 13 Noroeste 24 Norte 0 942.7 0.3 52
2020-03-27 17:00:00 14.6 15 Norte 25 Noroeste 0 942.3 -0.4 50
2020-03-27 16:00:00 15.7 10 Norte 25 Nordeste 0 942.3 -0.5 52
2020-03-27 15:00:00 14.9 9 Sudoeste 24 Sudoeste 0 942.4 -0.6 56
2020-03-27 14:00:00 14.8 9 Sur 22 Sur 0 942.7 -0.2 56
2020-03-27 13:00:00 13.6 10 Sudoeste 23 Sudoeste 0 942.8 0.4 60
2020-03-27 12:00:00 13.6 11 Sudoeste 18 Sudoeste 0 943 1.2 61
2020-03-27 11:00:00 11.6 4 Sur 22 Norte 0 942.9 1.8 67
2020-03-27 10:00:00 7.7 16 Norte 36 Norte 0 942.4 1.5 83
2020-03-27 09:00:00 6.7 15 Nordeste 28 Norte 0 941.8 1 84
2020-03-27 08:00:00 5 9 Norte 28 Norte 0 941.1 0.2 94
2020-03-27 07:00:00 4.8 6 Norte 28 Nordeste 0 940.9 -0.6 94
2020-03-27 06:00:00 4.9 14 Norte 33 Norte 0 940.8 -1.2 91
2020-03-27 05:00:00 5.4 9 Norte 28 Norte 0 940.9 -2 84
2020-03-27 04:00:00 5.7 5 Sudeste 20 Noroeste 0 941.5 -1.4 88
2020-03-27 03:00:00 6 9 Sur 15 Sudeste 0 942 -1.4 100
2020-03-27 02:00:00 6.6 2 Oeste 20 Sur 0 942.9 -0.5 100
2020-03-27 01:00:00 7.7 6 Sur 31 Norte 0 942.9 -0.8 93
2020-03-27 00:00:00 9.3 9 Noroeste 41 Norte 0 943.4 -0.3 84
2020-03-26 23:00:00 10.1 15 Norte 35 Norte 0 943.4 -0.1 79
2020-03-26 22:00:00 10.9 13 Noroeste 25 Noroeste 0 943.7 0.4 75
2020-03-26 21:00:00 11.6 9 Oeste 15 Oeste 0 943.7 0.5 70
2020-03-26 20:00:00 13.2 7 Oeste 25 Noroeste 0 943.5 0 59
2020-03-26 19:00:00 15.3 16 Noroeste 41 Noroeste 0 943.3 -0.6 48
2020-03-26 18:00:00 16.6 14 Noroeste 38 Noroeste 0 943.2 -1.2 46
2020-03-26 17:00:00 17.9 14 Noroeste 35 Norte 0 943.5 -1.4 44
2020-03-26 16:00:00 17.7 12 Oeste 37 Noroeste 0 943.9 -1.4 43
2020-03-26 15:00:00 17.4 15 Noroeste 40 Noroeste 0 944.4 -1.3 44
2020-03-26 14:00:00 16.9 11 Norte 31 Norte 0 944.9 -0.9 54
2020-03-26 13:00:00 16.5 14 Noroeste 33 Noroeste 0 945.3 -0.3 55
2020-03-26 12:00:00 15.1 19 Noroeste 32 Noroeste 0 945.7 0.3 52
2020-03-26 11:00:00 14.3 18 Norte 36 Nordeste 0.2 945.8 0.1 53
2020-03-26 10:00:00 13.3 18 Norte 37 Norte 0 945.6 -0.1 56
2020-03-26 09:00:00 12 12 Norte 21 Norte 0 945.4 -0.2 64
2020-03-26 08:00:00 7.9 4 Sur 12 Nordeste 0 945.7 -0.2 100
2020-03-26 07:00:00 7.7 7 Nordeste 12 Nordeste 0 945.7 -0.6 100
2020-03-26 06:00:00 7.6 7 Sur 17 Noroeste 0 945.6 -1.4 100
2020-03-26 05:00:00 7.8 5 Sudeste 9 Sudeste 0 945.9 -1.8 100
2020-03-26 04:00:00 8.5 4 Este 7 Sudeste 0 946.3 -2 100
2020-03-26 03:00:00 9.2 4 Sudoeste 15 Norte 0 947 -1.7 100
2020-03-26 02:00:00 10.4 6 Noroeste 20 Norte 0 947.7 -1.1 100
2020-03-26 01:00:00 11 9 Oeste 19 Noroeste 0 948.3 -0.7 100
2020-03-26 00:00:00 11.3 8 Oeste 19 Oeste 0 948.7 0 100
2020-03-25 23:00:00 11 10 Noroeste 20 Oeste 0 948.8 0.5 100
2020-03-25 22:00:00 10.7 11 Noroeste 22 Noroeste 0 949 0.7 100
2020-03-25 21:00:00 9.3 4 Oeste 9 Oeste 0 948.7 0.7 100
2020-03-25 20:00:00 10.7 6 Oeste 17 Sudoeste 0.2 948.3 0.1 100
2020-03-25 19:00:00 11.2 17 Norte 27 Norte 0.6 948.3 -0.2 99
2020-03-25 18:00:00 13.6 14 Noroeste 25 Norte 0 948 -0.9 91
2020-03-25 17:00:00 15.9 10 Oeste 22 Oeste 0 948.2 -1.2 72
2020-03-25 16:00:00 15.3 9 Sudoeste 18 Sudoeste 0 948.5 -1.3 78
2020-03-25 15:00:00 14.5 6 Sudoeste 18 Sudoeste 0 948.9 -1.1 73
2020-03-25 14:00:00 15.1 9 Oeste 22 Oeste 0 949.4 -0.4 70
2020-03-25 13:00:00 15.1 10 Sudoeste 20 Sudoeste 0 949.8 0.1 69
2020-03-25 12:00:00 13.6 9 Sudoeste 15 Sudoeste 0 950 0.9 72
2020-03-25 11:00:00 14 3 Sudoeste 12 Sudoeste 0 949.8 1.1 71
2020-03-25 10:00:00 12 5 Sudoeste 9 Sudoeste 0 949.7 1.3 84
2020-03-25 09:00:00 10.9 0 Calma 4 Nordeste 0 949.1 1 95
2020-03-25 08:00:00 9.8 3 Noroeste 7 Este 0 948.7 0.9 94
2020-03-25 07:00:00 9.9 4 Este 7 Este 0 948.4 0.8 88
2020-03-25 06:00:00 9.9 2 Sur 8 Este 0 948.1 0.5 89
2020-03-25 05:00:00 9.8 3 Norte 8 Oeste 0 947.8 0.1 87
2020-03-25 04:00:00 10.2 6 Este 11 Este 0 947.6 0 80
2020-03-25 03:00:00 9.6 6 Este 13 Este 0 947.6 0.2 85
2020-03-25 02:00:00 9.9 7 Este 10 Este 0 947.7 0.7 90
2020-03-25 01:00:00 10.5 2 Este 8 Nordeste 0 947.6 1 87
2020-03-25 00:00:00 10.5 5 Este 9 Nordeste 0 947.4 1.7 86
2020-03-24 23:00:00 11 7 Nordeste 12 Este 0 947 2 86
2020-03-24 22:00:00 13 4 Nordeste 19 Nordeste 0 946.6 2.1 73
2020-03-24 21:00:00 14 12 Nordeste 23 Norte 0 945.7 1.8 70
2020-03-24 20:00:00 14.3 11 Nordeste 22 Nordeste 0 945 1.4 68
2020-03-24 19:00:00 15.5 11 Nordeste 19 Nordeste 0 944.5 0.8 59
2020-03-24 18:00:00 16 9 Nordeste 18 Nordeste 0 943.9 0.2 54
2020-03-24 17:00:00 16.8 6 Este 25 Nordeste 0 943.6 -0.4 50
2020-03-24 16:00:00 17 11 Este 21 Este 0 943.7 -0.4 52
2020-03-24 15:00:00 15.8 8 Sudeste 31 Nordeste 0 943.7 -0.6 55
2020-03-24 14:00:00 16.5 14 Sudeste 35 Este 0 944 0 56
2020-03-24 13:00:00 15.9 11 Este 34 Nordeste 0 944.1 0.4 57
2020-03-24 12:00:00 14.2 16 Nordeste 32 Nordeste 0 944.3 0.7 62
2020-03-24 11:00:00 14.3 11 Nordeste 31 Nordeste 0 944 0.5 64
2020-03-24 10:00:00 12.9 15 Este 34 Nordeste 0 943.7 0.3 62
2020-03-24 09:00:00 11 15 Nordeste 30 Este 0 943.6 0.1 70
2020-03-24 08:00:00 8.6 7 Nordeste 38 Nordeste 0 943.5 0.1 89
2020-03-24 07:00:00 8 18 Nordeste 36 Nordeste 0 943.4 -0.5 93
2020-03-24 06:00:00 7.7 16 Nordeste 31 Nordeste 0 943.5 -0.3 93
2020-03-24 05:00:00 8.5 10 Nordeste 26 Nordeste 0 943.4 -0.9 84
2020-03-24 04:00:00 8.5 8 Este 21 Este 0 943.9 -0.9 85
2020-03-24 03:00:00 8.5 9 Este 27 Este 0 943.8 -1.1 86
2020-03-24 02:00:00 8.5 10 Este 26 Este 0 944.3 -0.9 85
2020-03-24 01:00:00 9 11 Este 25 Nordeste 0 944.8 0 80
2020-03-24 00:00:00 9.2 15 Nordeste 35 Nordeste 0 944.9 0.2 82
2020-03-23 23:00:00 9.2 14 Nordeste 38 Este 0 945.2 0.9 84
2020-03-23 22:00:00 9.6 15 Nordeste 40 Nordeste 0.2 944.8 0.9 73
2020-03-23 21:00:00 10.3 10 Este 33 Este 0 944.7 0.6 69
2020-03-23 20:00:00 9.6 8 Este 22 Nordeste 0 944.3 0.4 71
2020-03-23 19:00:00 11 8 Este 18 Este 0 943.9 -0.4 63
2020-03-23 18:00:00 11.3 7 Este 30 Este 0 944.1 -0.2 71
2020-03-23 17:00:00 10.8 12 Nordeste 25 Este 0 943.9 -1.2 76
2020-03-23 16:00:00 10.7 13 Este 36 Sudeste 0.2 944.3 -1.3 85
2020-03-23 15:00:00 13.9 12 Nordeste 28 Sur 0 944.3 -1.6 55
2020-03-23 14:00:00 15.4 12 Sudeste 28 Sudeste 0 945.1 -0.9 54
2020-03-23 13:00:00 13.3 17 Sudeste 26 Sudeste 0 945.6 -0.3 62
2020-03-23 12:00:00 12.2 11 Sudeste 28 Este 0 945.9 0.5 64
2020-03-23 11:00:00 12.7 12 Este 23 Este 0 946 0.6 62
2020-03-23 10:00:00 10.9 13 Este 27 Este 0 945.9 0.6 70
2020-03-23 09:00:00 10.7 5 Este 12 Este 0 945.4 0.2 71
2020-03-23 08:00:00 7.2 6 Nordeste 9 Nordeste 0 945.4 0.3 89
2020-03-23 07:00:00 7.9 5 Nordeste 7 Nordeste 0 945.3 0.6 88
2020-03-23 06:00:00 8.1 5 Nordeste 9 Nordeste 0 945.2 0.1 86
2020-03-23 05:00:00 7.7 3 Noroeste 12 Nordeste 0 945.1 -0.4 91
2020-03-23 04:00:00 7.7 0 Calma 7 Nordeste 0 944.7 -1.2 88
2020-03-23 03:00:00 8.3 5 Nordeste 10 Nordeste 0 945.1 -0.9 85
2020-03-23 02:00:00 8.1 5 Nordeste 10 Nordeste 0 945.5 -0.3 86
2020-03-23 01:00:00 7.6 4 Nordeste 9 Nordeste 0 945.9 0.3 85
2020-03-23 00:00:00 7.9 4 Noroeste 17 Nordeste 0 946 0.5 82
2020-03-22 23:00:00 8.3 13 Nordeste 17 Nordeste 0 945.8 0.9 79
2020-03-22 22:00:00 7.5 4 Nordeste 11 Nordeste 0 945.6 1.2 90
2020-03-22 21:00:00 8.2 3 Nordeste 10 Este 0 945.5 1.7 88
2020-03-22 20:00:00 9.6 5 Nordeste 15 Nordeste 0 944.9 1.2 79
2020-03-22 19:00:00 12.5 4 Noroeste 17 Norte 0 944.4 0.9 59
2020-03-22 18:00:00 12.2 4 Norte 17 Nordeste 0 943.8 -0.1 60
2020-03-22 17:00:00 12.4 13 Nordeste 24 Nordeste 0 943.7 -0.7 58
2020-03-22 16:00:00 12.9 6 Nordeste 13 Este 0 943.5 -1 54
2020-03-22 15:00:00 13.6 3 Sudoeste 15 Este 0 943.9 -0.6 60
2020-03-22 14:00:00 11.2 8 Este 16 Este 0 944.4 0.2 64
2020-03-22 13:00:00 10.5 8 Este 19 Nordeste 0 944.5 0.8 72
2020-03-22 12:00:00 9.6 7 Nordeste 19 Nordeste 0 944.5 1.1 78
2020-03-22 11:00:00 9.7 6 Este 21 Sudeste 0 944.2 1.2 80
2020-03-22 10:00:00 9.6 7 Este 19 Este 0 943.7 1.1 87
2020-03-22 09:00:00 7.2 7 Este 19 Nordeste 0 943.4 0.9 100
2020-03-22 08:00:00 5.4 2 Sudoeste 10 Norte 0 943 0.7 100
2020-03-22 07:00:00 5.8 4 Nordeste 13 Este 0.4 942.6 0.3 100
2020-03-22 06:00:00 6.4 0 Calma 11 Sudeste 1.2 942.5 -0.1 100
2020-03-22 05:00:00 6.3 6 Sudeste 14 Sudeste 0.6 942.3 -0.4 100
2020-03-22 04:00:00 6.6 3 Sudeste 10 Sudeste 0 942.3 -0.7 100
2020-03-22 03:00:00 6.7 6 Sudeste 11 Sudeste 0 942.6 -0.7 100
2020-03-22 02:00:00 6.8 4 Sudeste 7 Sudeste 0.4 942.7 -0.7 100
2020-03-22 01:00:00 6.8 3 Sudeste 6 Este 0.4 943 -0.4 100
2020-03-22 00:00:00 6.9 4 Sudeste 13 Sur 0.4 943.3 0.2 100
2020-03-21 23:00:00 6.9 3 Sudeste 12 Sur 0.6 943.4 0.9 100
2020-03-21 22:00:00 7.1 5 Sur 15 Sur 0 943.4 1.3 100
2020-03-21 21:00:00 7.2 6 Sudoeste 14 Sur 0.6 943.1 1.3 100
2020-03-21 20:00:00 7.3 5 Sudeste 8 Sudeste 0 942.5 0.9 100
2020-03-21 19:00:00 7.9 3 Sur 13 Noroeste 0 942.1 0.3 100
2020-03-21 18:00:00 6.6 6 Norte 28 Nordeste 1.4 941.8 -0.6 100
2020-03-21 17:00:00 6.6 14 Norte 24 Noroeste 8.6 941.6 -1.8 100
2020-03-21 16:00:00 8.6 9 Sudeste 27 Sudeste 0.6 941.8 -2.4 100
2020-03-21 15:00:00 9.5 11 Sudeste 27 Sur 0 942.4 -2 98
2020-03-21 14:00:00 8.4 8 Sur 24 Sur 0.6 943.4 -1.6 100
2020-03-21 13:00:00 8.8 13 Sur 36 Sur 0 944.2 -0.9 91
2020-03-21 12:00:00 9.2 19 Sur 33 Sudeste 0 944.4 -0.8 83
2020-03-21 11:00:00 8.6 15 Sur 28 Sur 0 945 0 92
2020-03-21 10:00:00 7.8 7 Sudeste 16 Sudeste 0 945.1 0.4 100
2020-03-21 09:00:00 7.2 5 Sur 15 Oeste 0 945.2 0.4 100
2020-03-21 08:00:00 6.5 9 Sudoeste 19 Sudoeste 0 945 0.1 100
2020-03-21 07:00:00 6.6 3 Sudoeste 15 Sudoeste 0 944.7 -0.4 100
2020-03-21 06:00:00 6.6 3 Oeste 11 Oeste 0 944.8 -0.3 100
2020-03-21 05:00:00 6.7 7 Oeste 18 Oeste 0 944.9 0.2 100
2020-03-21 04:00:00 7.1 5 Oeste 15 Noroeste 0 945.1 0.2 100
2020-03-21 03:00:00 7.3 6 Noroeste 22 Noroeste 0 945.1 -0.1 100
2020-03-21 02:00:00 7.7 12 Oeste 31 Norte 0.2 944.7 -0.3 100
2020-03-21 01:00:00 8.1 18 Norte 30 Norte 2.8 944.9 0 100
2020-03-21 00:00:00 9.1 8 Oeste 18 Sudoeste 4.6 945.2 0.7 100
2020-03-20 23:00:00 9.6 3 Oeste 18 Oeste 3.4 945 0.4 100
2020-03-20 22:00:00 10 9 Norte 25 Sudeste 6 944.9 0.3 100
2020-03-20 21:00:00 11.2 17 Sur 36 Sur 9 944.5 -0.4 100
2020-03-20 20:00:00 10.7 10 Oeste 27 Oeste 2.2 944.6 -0.9 97
2020-03-20 19:00:00 11.9 6 Sudeste 14 Este 0 944.6 -1.5 100
2020-03-20 18:00:00 11.7 5 Este 12 Sudeste 0.8 944.9 -1.7 100
2020-03-20 17:00:00 11.9 5 Sudeste 12 Sudeste 0.8 945.5 -1.4 100
2020-03-20 16:00:00 11.5 6 Sudeste 21 Sur 0.6 946.1 -1.1 100
2020-03-20 15:00:00 12 15 Sur 31 Sur 0.2 946.6 -1.2 97
2020-03-20 14:00:00 12.2 8 Sudeste 19 Sudeste 0 946.9 -0.9 100
2020-03-20 13:00:00 12.4 7 Sudeste 16 Sur 0 947.2 -0.4 97
2020-03-20 12:00:00 12.2 8 Sur 15 Sur 0 947.8 0.6 94
2020-03-20 11:00:00 13.1 6 Sudoeste 12 Sudoeste 0 947.8 1.2 84
2020-03-20 10:00:00 12.4 8 Sur 16 Sur 0 947.6 1 91
2020-03-20 09:00:00 12.4 4 Sudoeste 6 Sudoeste 0 947.2 0.6 90
2020-03-20 08:00:00 11.2 4 Norte 7 Este 0 946.6 0.1 100
2020-03-20 07:00:00 11.3 4 Este 7 Este 0 946.6 -0.3 100
2020-03-20 06:00:00 11.5 2 Oeste 8 Noroeste 0 946.6 -1 99
2020-03-20 05:00:00 11.5 3 Oeste 12 Noroeste 0 946.5 -1.4 100
2020-03-20 04:00:00 11.6 6 Oeste 17 Oeste 0 946.9 -1.2 100
2020-03-20 03:00:00 11.6 8 Oeste 19 Oeste 0 947.6 -0.8 100
2020-03-20 02:00:00 11.7 7 Sudoeste 12 Sudoeste 0 947.9 -0.4 85
2020-03-20 01:00:00 12.6 5 Sur 12 Sur 0 948.1 0.1 78
2020-03-20 00:00:00 12.6 6 Nordeste 10 Este 0 948.4 0.4 78
2020-03-19 23:00:00 12.2 4 Nordeste 9 Nordeste 0 948.3 0.4 78
2020-03-19 22:00:00 12.5 3 Nordeste 7 Nordeste 0 948 0 76
2020-03-19 21:00:00 13.5 4 Nordeste 8 Nordeste 0 948 0.2 70
2020-03-19 20:00:00 14.5 6 Nordeste 10 Nordeste 0 947.9 -0.3 71
2020-03-19 19:00:00 16.5 5 Sur 13 Sur 0 948 -0.3 61
2020-03-19 18:00:00 17.5 7 Sur 14 Sur 0 947.8 -1.2 60
2020-03-19 17:00:00 17.8 9 Sur 17 Sur 0 948.2 -1.6 57
2020-03-19 16:00:00 17.7 7 Sudeste 17 Sur 0 948.3 -2 55
2020-03-19 15:00:00 18 10 Sur 20 Sudoeste 0 949 -1.9 55
2020-03-19 14:00:00 17.5 7 Sudoeste 17 Sudoeste 0 949.8 -1.3 57
2020-03-19 13:00:00 17.2 7 Sudeste 23 Sudeste 0 950.3 -0.7 57
2020-03-19 12:00:00 15.4 10 Sudeste 26 Sudeste 0 950.9 0.4 63
2020-03-19 11:00:00 14.1 9 Este 31 Este 0 951.1 1.2 66
2020-03-19 10:00:00 13.3 8 Este 23 Este 0 951 0.6 68
2020-03-19 09:00:00 12 5 Sudeste 36 Norte 0 950.5 -0.2 76
2020-03-19 08:00:00 11.5 20 Nordeste 36 Nordeste 0 949.9 -1.2 78
2020-03-19 07:00:00 11.4 12 Nordeste 27 Norte 0 950.4 -1.4 81
2020-03-19 06:00:00 10.7 9 Nordeste 21 Nordeste 0 950.7 -1.6 85
2020-03-19 05:00:00 10.4 5 Noroeste 18 Nordeste 0 951.1 -1.2 85
2020-03-19 04:00:00 11 5 Noroeste 9 Noroeste 0 951.8 -0.2 84
2020-03-19 03:00:00 12.2 5 Oeste 10 Sudeste 0 952.3 0.6 73
2020-03-19 02:00:00 13.4 7 Sudeste 17 Este 0 952.3 0.3 67
2020-03-19 01:00:00 13.7 5 Sudeste 17 Este 0 952 0 66
2020-03-19 00:00:00 14.5 10 Este 18 Este 0 951.7 0 63
2020-03-18 23:00:00 13.7 8 Este 15 Sudeste 0 952 0.7 66
2020-03-18 22:00:00 14.7 9 Este 17 Sudeste 0 952 1 60
2020-03-18 21:00:00 15.4 6 Este 15 Este 0 951.7 0.9 58
2020-03-18 20:00:00 15.9 9 Este 16 Sudeste 0 951.3 0.5 60
2020-03-18 19:00:00 19 9 Sudeste 21 Sudeste 0 951 -0.1 49
2020-03-18 18:00:00 20.4 10 Sudeste 24 Sudeste 0 950.8 -0.6 46
2020-03-18 17:00:00 21.1 13 Sudeste 32 Sur 0 950.8 -1.1 43
2020-03-18 16:00:00 21.4 14 Este 45 Sudeste 0 951.1 -1.3 40
2020-03-18 15:00:00 20.6 19 Sudeste 36 Sudeste 0 951.4 -1.3 40
2020-03-18 14:00:00 20.2 18 Sudeste 37 Este 0 951.9 -0.9 42
2020-03-18 13:00:00 19.8 14 Sudeste 32 Este 0 952.4 0 48
2020-03-18 12:00:00 18.1 16 Sudeste 34 Sudeste 0 952.7 1 51
2020-03-18 11:00:00 17 15 Sudeste 36 Este 0 952.8 1.4 53
2020-03-18 10:00:00 14.7 21 Este 45 Este 0 952.4 1.3 60
2020-03-18 09:00:00 13.9 18 Este 42 Este 0 951.7 0.7 61
2020-03-18 08:00:00 12.6 15 Este 42 Este 0 951.4 0.5 69
2020-03-18 07:00:00 12.4 16 Este 37 Nordeste 0 951.1 0.7 72
2020-03-18 06:00:00 12.2 17 Nordeste 35 Nordeste 0 951 -0.7 76
2020-03-18 05:00:00 12.4 14 Este 30 Este 0 950.9 -1.3 75
2020-03-18 04:00:00 12.5 13 Este 42 Este 0 950.4 -1.6 72
2020-03-18 03:00:00 13 18 Este 50 Este 0 951.7 -0.1 68
2020-03-18 02:00:00 13.3 16 Este 45 Este 0 952.2 0.3 63
2020-03-18 01:00:00 13.1 13 Este 41 Este 0 952 -0.4 62
2020-03-18 00:00:00 12.8 21 Nordeste 44 Nordeste 0 951.8 -1.2 59
2020-03-17 23:00:00 11.9 23 Nordeste 51 Este 0 951.9 -1.1 58
2020-03-17 22:00:00 10.9 15 Nordeste 32 Nordeste 0 952.4 -0.1 62
2020-03-17 21:00:00 10.6 11 Nordeste 21 Nordeste 0.2 953 0.8 62
2020-03-17 20:00:00 11.7 8 Este 19 Este 0 953 1.1 52
2020-03-17 19:00:00 12.5 8 Este 29 Este 0 952.5 0.7 48
2020-03-17 18:00:00 13.2 10 Sudeste 47 Sudeste 0 952.2 0.2 45
2020-03-17 17:00:00 13.7 21 Sudeste 49 Sudeste 0 951.9 -0.1 47
2020-03-17 16:00:00 12.3 20 Este 46 Sudeste 0 951.8 -0.1 55
2020-03-17 15:00:00 11.1 18 Sudeste 50 Sudeste 0 952 0.2 61
2020-03-17 14:00:00 10.7 14 Sudeste 40 Sudeste 0 952 1 71
2020-03-17 13:00:00 8.6 17 Sudeste 40 Sudeste 0.2 951.9 1.5 85
2020-03-17 12:00:00 7.7 18 Sudeste 39 Sudeste 0 951.8 2.2 88
2020-03-17 11:00:00 5.7 15 Este 40 Este 1 951 2.1 100
2020-03-17 10:00:00 5 14 Este 40 Este 0 950.4 1.6 100
2020-03-17 09:00:00 5.1 12 Este 28 Este 0.4 949.6 1.2 100
2020-03-17 08:00:00 4.3 12 Este 28 Este 0 948.9 0.9 100
2020-03-17 07:00:00 4.4 7 Este 28 Este 0.4 948.8 1.3 100
2020-03-17 06:00:00 4.5 10 Nordeste 19 Nordeste 0 948.4 0.4 90
2020-03-17 05:00:00 4.6 7 Nordeste 15 Este 0 948 -0.2 94
2020-03-17 04:00:00 4.6 19 Norte 40 Norte 0 947.5 -1.1 95
2020-03-17 03:00:00 4.7 11 Nordeste 26 Nordeste 0 948 -0.7 98
2020-03-17 02:00:00 5.1 10 Norte 23 Nordeste 0 948.2 -0.6 100
2020-03-17 01:00:00 5.5 6 Norte 25 Noroeste 0 948.6 -0.5 96
2020-03-17 00:00:00 5.7 16 Norte 33 Norte 0 948.7 0.1 100
2020-03-16 23:00:00 5.5 19 Norte 44 Noroeste 1.2 948.8 0.4 100
2020-03-16 22:00:00 5.2 22 Norte 51 Norte 2.6 949.1 1.4 100
2020-03-16 21:00:00 6.7 14 Norte 36 Norte 0.2 948.6 1.2 83
2020-03-16 20:00:00 7 16 Norte 43 Norte 0 948.4 1.3 77
2020-03-16 19:00:00 8.4 12 Norte 49 Norte 0 947.7 0.3 62
2020-03-16 18:00:00 9.8 14 Norte 56 Norte 0 947.4 -0.1 58
2020-03-16 17:00:00 9.7 21 Noroeste 60 Norte 0 947.1 -1 59
2020-03-16 16:00:00 12.2 18 Norte 57 Noroeste 0 947.4 -1.2 44
2020-03-16 15:00:00 10.9 25 Norte 58 Norte 0 947.5 -1.4 46
2020-03-16 14:00:00 10.2 29 Noroeste 55 Noroeste 0 948.1 -1.3 48
2020-03-16 13:00:00 9 23 Norte 48 Norte 0 948.6 -0.6 52
2020-03-16 12:00:00 9.1 17 Norte 42 Norte 0 948.9 -0.1 54
2020-03-16 11:00:00 6.9 18 Norte 41 Norte 0 949.4 0.8 61
2020-03-16 10:00:00 5.5 20 Norte 41 Norte 0 949.2 1.3 73
2020-03-16 09:00:00 4 19 Norte 39 Norte 0 949 1.1 82
2020-03-16 08:00:00 3.3 13 Norte 46 Norte 0 948.6 0.5 91
2020-03-16 07:00:00 4.1 16 Norte 35 Noroeste 0 947.9 0.3 85
2020-03-16 06:00:00 3.5 8 Oeste 28 Norte 0 947.9 0.7 87
2020-03-16 05:00:00 3.8 10 Norte 39 Norte 0 948.1 0.7 85
2020-03-16 04:00:00 4.2 17 Norte 62 Norte 0 947.6 0 79
2020-03-16 03:00:00 4.7 32 Norte 63 Norte 0 947.2 -0.7 78
2020-03-16 02:00:00 5.4 29 Norte 55 Norte 0 947.4 -0.6 73
2020-03-16 01:00:00 7 35 Norte 69 Norte 0 947.6 -0.2 67
2020-03-16 00:00:00 8.4 46 Norte 68 Norte 0 947.9 0.5 78
2020-03-15 23:00:00 10.3 33 Norte 58 Norte 0 948 1 79
2020-03-15 22:00:00 12.6 28 Norte 49 Norte 0 947.8 0.8 61
2020-03-15 21:00:00 14.3 8 Noroeste 25 Noroeste 0 947.4 0.3 76
2020-03-15 20:00:00 15.2 11 Oeste 28 Oeste 0 947 -0.3 72
2020-03-15 19:00:00 16.6 10 Oeste 28 Sudoeste 0 947 -0.7 65
2020-03-15 18:00:00 18.5 9 Sudoeste 24 Sudoeste 0 947.1 -1 57
2020-03-15 17:00:00 19.6 12 Sudoeste 33 Sudoeste 0 947.3 -1.6 54
2020-03-15 16:00:00 20.1 11 Sudoeste 32 Sudoeste 0 947.7 -1.9 53
2020-03-15 15:00:00 21 11 Sudoeste 26 Sudoeste 0 948.1 -1.9 53
2020-03-15 14:00:00 19.4 12 Sudoeste 22 Sudoeste 0 948.9 -1.5 62
2020-03-15 13:00:00 17.8 8 Oeste 22 Oeste 0 949.6 -0.6 65
2020-03-15 12:00:00 18.1 10 Sudoeste 19 Sudoeste 0 950 0.2 67
2020-03-15 11:00:00 16.1 10 Sudoeste 16 Sudoeste 0 950.4 0.9 75
2020-03-15 10:00:00 14.7 8 Sudoeste 13 Sudoeste 0 950.2 0.9 82
2020-03-15 09:00:00 13.4 3 Sur 7 Sudoeste 0 949.8 0.5 89
2020-03-15 08:00:00 10.8 2 Oeste 6 Noroeste 0 949.5 0.2 100
2020-03-15 07:00:00 10.5 0 Calma 8 Nordeste 0 949.3 -0.2 100
2020-03-15 06:00:00 11.1 6 Nordeste 10 Nordeste 0 949.3 -0.5 94
2020-03-15 05:00:00 11.5 5 Nordeste 11 Nordeste 0 949.3 -0.9 83
2020-03-15 04:00:00 12.7 9 Nordeste 13 Nordeste 0 949.5 -1 78
2020-03-15 03:00:00 13.1 2 Sudoeste 9 Nordeste 0 949.8 -1.2 77
2020-03-15 02:00:00 14.2 3 Nordeste 14 Este 0 950.2 -0.8 73
2020-03-15 01:00:00 14.1 4 Sudeste 7 Sur 0 950.5 -0.6 78
2020-03-15 00:00:00 14.5 3 Oeste 20 Norte 0 951 0 77
2020-03-14 23:00:00 15.6 5 Norte 23 Nordeste 0 951 0.1 71
2020-03-14 22:00:00 16.2 11 Norte 21 Nordeste 0 951.1 0.3 70
2020-03-14 21:00:00 15.3 3 Sudeste 8 Nordeste 0 951 0.2 79
2020-03-14 20:00:00 16.5 4 Nordeste 9 Sudoeste 0 950.9 0.1 72
2020-03-14 19:00:00 19.2 6 Sudoeste 17 Sudoeste 0 950.8 -0.2 60
2020-03-14 18:00:00 20.1 11 Sudoeste 18 Sudoeste 0 950.8 -0.7 58
2020-03-14 17:00:00 21.3 10 Sudoeste 21 Sudoeste 0 950.8 -1.4 56
2020-03-14 16:00:00 21.4 11 Sudoeste 19 Sudoeste 0 951 -1.6 52
2020-03-14 15:00:00 21.6 10 Sudoeste 22 Sudoeste 0 951.5 -1.4 53
2020-03-14 14:00:00 21.3 11 Sudoeste 23 Sudoeste 0 952.2 -0.9 55
2020-03-14 13:00:00 20.7 9 Sudoeste 17 Sudoeste 0 952.6 -0.3 57
2020-03-14 12:00:00 19.7 9 Sudoeste 16 Sudoeste 0 952.9 0.4 57
2020-03-14 11:00:00 18 8 Sudoeste 12 Sur 0 953.1 1 61
2020-03-14 10:00:00 15.5 5 Sudoeste 8 Sudoeste 0 952.9 1.1 63
2020-03-14 09:00:00 13.3 0 Calma 9 Nordeste 0 952.5 1 69
2020-03-14 08:00:00 9.6 3 Norte 8 Este 0 952.1 0.8 78
2020-03-14 07:00:00 10 4 Nordeste 10 Nordeste 0 951.8 0.4 72
2020-03-14 06:00:00 9.8 0 Calma 10 Nordeste 0 951.5 -0.1 70
2020-03-14 05:00:00 10.3 2 Oeste 6 Noroeste 0 951.3 -0.3 70
2020-03-14 04:00:00 11.3 4 Nordeste 9 Norte 0 951.4 -0.3 62
2020-03-14 03:00:00 12.7 5 Norte 23 Norte 0 951.6 -0.2 79
2020-03-14 02:00:00 13.6 6 Norte 21 Norte 0 951.6 -0.2 69
2020-03-14 01:00:00 13.5 7 Noroeste 23 Norte 0 951.7 0.1 61
2020-03-14 00:00:00 13.8 13 Norte 30 Norte 0 951.8 0.4 82
2020-03-13 23:00:00 13.8 13 Norte 24 Norte 0 951.8 0.8 82
2020-03-13 22:00:00 13.8 12 Norte 22 Norte 0 951.6 1 72
2020-03-13 21:00:00 14.1 13 Norte 23 Norte 0 951.4 1.2 69
2020-03-13 20:00:00 14.9 15 Norte 22 Norte 0 951 0.9 65
2020-03-13 19:00:00 17 14 Norte 23 Norte 0 950.6 0.5 60
2020-03-13 18:00:00 20.2 8 Noroeste 26 Sudoeste 0 950.2 -0.1 48
2020-03-13 17:00:00 22.1 15 Sudoeste 28 Sudoeste 0 950.1 -0.9 43
2020-03-13 16:00:00 22.5 6 Oeste 22 Noroeste 0 950.1 -1.5 41
2020-03-13 15:00:00 23.5 10 Oeste 24 Noroeste 0 950.3 -1.6 36
2020-03-13 14:00:00 22.5 15 Sudoeste 26 Sudoeste 0 951 -0.9 47
2020-03-13 13:00:00 20.7 13 Sudoeste 21 Sudoeste 0 951.6 0 58
2020-03-13 12:00:00 20.1 10 Sudoeste 16 Sudoeste 0 951.9 0.8 58
2020-03-13 11:00:00 18.2 10 Sudoeste 14 Sudoeste 0 951.9 1.2 68
2020-03-13 10:00:00 16.7 6 Oeste 13 Oeste 0 951.6 1.1 66
2020-03-13 09:00:00 13.7 0 Calma 7 Oeste 0 951.1 0.6 90
2020-03-13 08:00:00 11.1 4 Noroeste 7 Noroeste 0 950.7 0.1 100
2020-03-13 07:00:00 11 3 Oeste 7 Nordeste 0 950.5 -0.3 100
2020-03-13 06:00:00 11.1 0 Calma 4 Noroeste 0 950.5 -0.4 98
2020-03-13 05:00:00 11.1 0 Calma 9 Nordeste 0 950.6 -0.8 97
2020-03-13 04:00:00 11.6 3 Norte 6 Nordeste 0 950.8 -0.9 99
2020-03-13 03:00:00 12.6 2 Sudeste 13 Norte 0 950.9 -1.3 94
2020-03-13 02:00:00 12.6 3 Noroeste 8 Norte 0 951.4 -0.7 93
2020-03-13 01:00:00 11.8 4 Noroeste 5 Noroeste 0 951.7 -0.3 96
2020-03-13 00:00:00 11.8 2 Noroeste 9 Nordeste 0 952.2 0.4 94
2020-03-12 23:00:00 12.4 4 Nordeste 8 Nordeste 0 952.1 0.6 87
2020-03-12 22:00:00 12.7 6 Nordeste 8 Nordeste 0 952 0.7 84
2020-03-12 21:00:00 13.3 3 Oeste 11 Nordeste 0 951.8 0.6 79
2020-03-12 20:00:00 14.6 8 Nordeste 12 Nordeste 0 951.5 0.2 73
2020-03-12 19:00:00 18.7 4 Sur 8 Sur 0 951.3 -0.5 56
2020-03-12 18:00:00 19.3 6 Sudoeste 16 Sudoeste 0 951.2 -1 53
2020-03-12 17:00:00 19.6 8 Sudoeste 14 Sudoeste 0 951.3 -1.5 51
2020-03-12 16:00:00 18.8 6 Sudoeste 22 Sudoeste 0 951.8 -1.7 55
2020-03-12 15:00:00 18.9 12 Sudoeste 21 Sudoeste 0 952.2 -1.5 57
2020-03-12 14:00:00 19.1 6 Sudoeste 22 Sudeste 0 952.8 -1.1 51
2020-03-12 13:00:00 19.4 6 Sur 22 Sur 0 953.5 -0.1 51
2020-03-12 12:00:00 18.5 9 Sur 21 Sudeste 0 953.7 0.5 51
2020-03-12 11:00:00 16.4 9 Sudeste 19 Sur 0 953.9 1 55
2020-03-12 10:00:00 15.9 4 Sudeste 12 Sur 0 953.6 1.3 55
2020-03-12 09:00:00 14.5 6 Este 13 Sudeste 0 953.2 1 55
2020-03-12 08:00:00 14 4 Este 8 Noroeste 0 952.9 0.6 54
2020-03-12 07:00:00 13.4 3 Noroeste 8 Este 0 952.3 -0.2 58
2020-03-12 06:00:00 14.4 2 Norte 13 Oeste 0 952.2 -0.9 56
2020-03-12 05:00:00 16.3 2 Sur 8 Sur 0 952.3 -1.3 49
2020-03-12 04:00:00 16.1 4 Sudeste 10 Nordeste 0 952.5 -1.5 51
2020-03-12 03:00:00 15.6 8 Nordeste 12 Nordeste 0 953.1 -1.4 54
2020-03-12 02:00:00 15.8 8 Nordeste 12 Este 0 953.6 -0.8 53
2020-03-12 01:00:00 16.6 8 Este 15 Este 0 954 -0.2 51
2020-03-12 00:00:00 16.9 5 Este 13 Este 0 954.5 0.6 50
2020-03-11 23:00:00 18.3 8 Este 12 Este 0 954.4 0.6 46
2020-03-11 22:00:00 19.2 8 Este 13 Este 0 954.2 0.2 42
2020-03-11 21:00:00 19.6 9 Este 15 Este 0 953.9 -0.1 41
2020-03-11 20:00:00 19.4 9 Este 14 Este 0 953.8 -0.6 47
2020-03-11 19:00:00 23 5 Este 15 Sudeste 0 954 -0.6 39
2020-03-11 18:00:00 24.9 10 Sur 22 Sur 0 954 -1 32
2020-03-11 17:00:00 26.6 7 Sudeste 19 Sudeste 0 954.4 -1.4 30
2020-03-11 16:00:00 25.7 10 Sudeste 19 Sudeste 0 954.6 -1.6 30
2020-03-11 15:00:00 25.6 11 Sudeste 25 Sudeste 0 955 -1.7 29
2020-03-11 14:00:00 25.3 11 Sudeste 29 Sur 0 955.8 -1.2 32
2020-03-11 13:00:00 25.7 12 Sudeste 28 Este 0 956.2 -0.7 31
2020-03-11 12:00:00 24.9 15 Sudeste 24 Sudeste 0 956.7 0 31
2020-03-11 11:00:00 23.3 14 Sudeste 29 Este 0 957 0.5 36
2020-03-11 10:00:00 21 9 Este 18 Este 0 956.9 0.5 41
2020-03-11 09:00:00 18.9 8 Este 16 Este 0 956.7 0.5 44
2020-03-11 08:00:00 14.5 11 Este 14 Este 0 956.5 0.2 58
2020-03-11 07:00:00 15.3 8 Nordeste 11 Nordeste 0 956.4 -0.3 55
2020-03-11 06:00:00 15.8 7 Nordeste 11 Nordeste 0 956.2 -0.8 53
2020-03-11 05:00:00 15.1 7 Nordeste 13 Nordeste 0 956.3 -1.2 56
2020-03-11 04:00:00 14.8 3 Noroeste 5 Oeste 0 956.7 -1.3 57
2020-03-11 03:00:00 15 6 Nordeste 8 Este 0 957 -1.4 58
2020-03-11 02:00:00 15.8 6 Nordeste 9 Este 0 957.5 -1.2 54
2020-03-11 01:00:00 15.8 8 Nordeste 10 Nordeste 0 958 -0.5 55
2020-03-11 00:00:00 16.4 8 Nordeste 13 Nordeste 0 958.4 -0.1 50
2020-03-10 23:00:00 15.9 4 Norte 14 Nordeste 0 958.7 0.4 52
2020-03-10 22:00:00 16.6 6 Nordeste 13 Nordeste 0 958.5 0.5 51
2020-03-10 21:00:00 17.5 5 Nordeste 11 Nordeste 0 958.5 0.7 51
2020-03-10 20:00:00 19.5 8 Nordeste 13 Nordeste 0 958.3 0.4 45
2020-03-10 19:00:00 23.9 5 Sudoeste 16 Sudeste 0 958 -0.2 34
2020-03-10 18:00:00 25.5 12 Sudeste 20 Sudeste 0 957.8 -0.9 30
2020-03-10 17:00:00 26.3 9 Este 19 Sur 0 957.9 -1.4 27
2020-03-10 16:00:00 27.2 7 Sur 22 Sur 0 958.2 -1.6 27
2020-03-10 15:00:00 26.7 10 Sur 24 Sur 0 958.7 -1.4 26
2020-03-10 14:00:00 25.5 10 Sudeste 23 Sudeste 0 959.3 -0.7 26
2020-03-10 13:00:00 23.7 9 Sudeste 24 Sudeste 0 959.8 0.2 30
2020-03-10 12:00:00 22.7 10 Sudeste 26 Sudeste 0 960.1 1.2 30
2020-03-10 11:00:00 20.9 16 Sudeste 27 Sudeste 0 960 1.7 31
2020-03-10 10:00:00 19.5 13 Este 30 Este 0 959.6 1.8 32
2020-03-10 09:00:00 18.3 10 Este 21 Este 0 958.9 1.3 34
2020-03-10 08:00:00 16 12 Este 20 Este 0 958.3 0.7 35
2020-03-10 07:00:00 15.3 8 Nordeste 26 Nordeste 0 957.8 0.3 32
2020-03-10 06:00:00 14.6 9 Nordeste 38 Norte 0 957.6 -0.5 35
2020-03-10 05:00:00 14.5 19 Nordeste 50 Norte 0 957.6 -1 36
2020-03-10 04:00:00 14.4 31 Norte 50 Nordeste 0 957.5 -1.5 36
2020-03-10 03:00:00 14.4 36 Norte 55 Norte 0 958.1 -1.2 39
2020-03-10 02:00:00 14.2 32 Norte 49 Norte 0 958.6 -0.3 43
2020-03-10 01:00:00 13.3 19 Nordeste 31 Nordeste 0 959 0.3 52
2020-03-10 00:00:00 13.5 14 Norte 42 Norte 0 959.3 0.9 52
2020-03-09 23:00:00 14.1 23 Norte 37 Norte 0 958.9 0.6 48
2020-03-09 22:00:00 14.4 18 Norte 42 Norte 0 958.7 0.7 46
2020-03-09 21:00:00 14.7 19 Norte 40 Nordeste 0 958.4 0.2 46
2020-03-09 20:00:00 15.3 11 Norte 25 Nordeste 0 958.3 0.1 36
2020-03-09 19:00:00 17.1 15 Norte 34 Norte 0 958 -0.8 30
2020-03-09 18:00:00 18.7 19 Norte 35 Nordeste 0 958.2 -0.8 27
2020-03-09 17:00:00 19.2 17 Norte 34 Noroeste 0 958.2 -1.4 25
2020-03-09 16:00:00 19.7 15 Norte 30 Norte 0 958.8 -1.3 24
2020-03-09 15:00:00 19.5 14 Norte 27 Nordeste 0 959 -1.3 25
2020-03-09 14:00:00 20.6 8 Nordeste 35 Norte 0 959.6 -0.4 20
2020-03-09 13:00:00 19.1 6 Nordeste 37 Norte 0 960.1 0.6 26
2020-03-09 12:00:00 17.9 11 Norte 36 Norte 0 960.3 1.7 29
2020-03-09 11:00:00 16.1 10 Norte 30 Nordeste 0 960 2.2 30
2020-03-09 10:00:00 12.7 13 Nordeste 46 Norte 0 959.5 1.6 60
2020-03-09 09:00:00 9.4 33 Nordeste 53 Nordeste 0 958.6 0.7 78
2020-03-09 08:00:00 8.5 31 Norte 60 Nordeste 0 957.8 -0.1 93
2020-03-09 07:00:00 9.8 32 Norte 54 Nordeste 0 957.9 -0.4 71
2020-03-09 06:00:00 10.5 33 Norte 55 Nordeste 0 957.9 -1.1 64
2020-03-09 05:00:00 9 38 Norte 54 Nordeste 0 957.9 -1.4 100
2020-03-09 04:00:00 9.2 32 Norte 49 Norte 0 958.3 -0.9 100
2020-03-09 03:00:00 9.7 30 Norte 50 Norte 0 959 -0.3 99
2020-03-09 02:00:00 9.8 28 Norte 51 Nordeste 0 959.3 0.1 89
2020-03-09 01:00:00 10.1 21 Nordeste 44 Norte 0 959.2 -0.3 84
2020-03-09 00:00:00 10.7 21 Nordeste 40 Nordeste 0 959.3 0.4 76
2020-03-08 23:00:00 11.5 25 Norte 45 Norte 0 959.2 0.7 69
2020-03-08 22:00:00 12.4 33 Norte 50 Norte 0 959.5 1.1 61
2020-03-08 21:00:00 13 30 Norte 53 Norte 0 958.9 0.5 61
2020-03-08 20:00:00 13.7 24 Norte 37 Norte 0 958.5 0.2 54
2020-03-08 19:00:00 14.3 9 Nordeste 39 Nordeste 0 958.4 0.3 50
2020-03-08 18:00:00 15.6 18 Norte 35 Nordeste 0 958.4 0.2 40
2020-03-08 17:00:00 17.5 15 Norte 28 Nordeste 0 958.3 -0.6 35
2020-03-08 16:00:00 19.2 9 Norte 25 Oeste 0 958.1 -1.5 31
2020-03-08 15:00:00 21.6 11 Oeste 21 Sudoeste 0 958.2 -1.5 22
2020-03-08 14:00:00 20.9 5 Sudoeste 21 Noroeste 0 958.9 -1 25
2020-03-08 13:00:00 20.3 12 Oeste 21 Norte 0 959.6 0.3 21
2020-03-08 12:00:00 17.8 4 Norte 20 Nordeste 0 959.7 0.9 24
2020-03-08 11:00:00 16.8 8 Nordeste 22 Norte 0 959.9 1.6 22
2020-03-08 10:00:00 14 3 Oeste 10 Este 0 959.3 1.1 37
2020-03-08 09:00:00 11.5 3 Sudoeste 15 Noroeste 0 958.8 0.7 48
2020-03-08 08:00:00 7.4 6 Norte 10 Norte 0 958.3 0.2 53
2020-03-08 07:00:00 8.6 5 Norte 15 Norte 0 958.2 -0.1 54
2020-03-08 06:00:00 9.2 7 Norte 19 Nordeste 0 958.1 -0.7 52
2020-03-08 05:00:00 9.4 10 Norte 19 Nordeste 0 958.1 -0.5 49
2020-03-08 04:00:00 7.3 3 Norte 9 Nordeste 0 958.3 -0.7 57
2020-03-08 03:00:00 8 5 Norte 13 Nordeste 0 958.8 -0.7 58
2020-03-08 02:00:00 8.1 8 Nordeste 12 Nordeste 0 958.6 -0.9 59
2020-03-08 01:00:00 9.3 6 Nordeste 12 Nordeste 0 959 -0.2 55
2020-03-08 00:00:00 9.2 6 Norte 18 Norte 0 959.5 0.8 57
2020-03-07 23:00:00 9.3 9 Nordeste 20 Nordeste 0 959.5 1 56
2020-03-07 22:00:00 10.2 9 Nordeste 17 Norte 0 959.2 1.1 54
2020-03-07 21:00:00 11 11 Norte 18 Norte 0 958.7 1.3 53
2020-03-07 20:00:00 12.3 14 Norte 17 Norte 0 958.5 1.1 50
2020-03-07 19:00:00 15.9 5 Nordeste 18 Este 0 958.1 0.4 39
2020-03-07 18:00:00 18 7 Nordeste 23 Norte 0 957.4 -0.7 33
2020-03-07 17:00:00 18.7 7 Nordeste 18 Norte 0 957.4 -1.4 33
2020-03-07 16:00:00 18.5 7 Este 18 Sur 0 957.7 -1.5 29
2020-03-07 15:00:00 18.7 5 Sudeste 17 Sudeste 0 958.1 -1.4 31
2020-03-07 14:00:00 18.2 10 Sudeste 26 Este 0 958.8 -0.7 30
2020-03-07 13:00:00 16.1 12 Sudeste 28 Este 0 959.2 0.1 32
2020-03-07 12:00:00 13.8 9 Este 26 Sudeste 0 959.5 1.1 38
2020-03-07 11:00:00 13.5 8 Sudeste 23 Nordeste 0 959.5 1.5 40
2020-03-07 10:00:00 11 13 Nordeste 31 Este 0 959.1 1.3 44
2020-03-07 09:00:00 8.2 17 Este 30 Este 0 958.4 1.1 51
2020-03-07 08:00:00 6.1 11 Nordeste 26 Nordeste 0 958 1 63
2020-03-07 07:00:00 6.9 8 Este 45 Nordeste 0 957.8 0.6 58
2020-03-07 06:00:00 6.8 24 Nordeste 51 Norte 0 957.3 0 61
2020-03-07 05:00:00 6.8 30 Nordeste 58 Norte 0 957 -0.6 65
2020-03-07 04:00:00 7.2 33 Nordeste 61 Norte 0 957.2 -0.7 64
2020-03-07 03:00:00 7 39 Nordeste 58 Nordeste 0 957.3 -0.4 70
2020-03-07 02:00:00 7.5 29 Norte 49 Norte 0 957.6 0.2 68
2020-03-07 01:00:00 7.9 28 Norte 47 Norte 0 957.9 0.9 68
2020-03-07 00:00:00 7.9 31 Norte 54 Norte 0 957.7 1.3 69
2020-03-06 23:00:00 8.4 29 Norte 49 Norte 0 957.4 1.4 69
2020-03-06 22:00:00 9.3 31 Norte 53 Norte 0 957 1.2 65
2020-03-06 21:00:00 10.2 32 Norte 52 Norte 0 956.4 0.9 63
2020-03-06 20:00:00 10.9 20 Norte 42 Norte 0 956 0.8 61
2020-03-06 19:00:00 11.8 17 Norte 43 Norte 0 955.8 0.3 56
2020-03-06 18:00:00 13.1 18 Norte 40 Noroeste 0 955.5 0 50
2020-03-06 17:00:00 13.3 27 Norte 48 Noroeste 0 955.2 -1.2 49
2020-03-06 16:00:00 13.4 24 Norte 44 Noroeste 0 955.5 -1.2 53
2020-03-06 15:00:00 13.2 22 Norte 44 Norte 0 955.5 -0.8 51
2020-03-06 14:00:00 12.6 22 Norte 51 Noroeste 0 956.4 0.3 50
2020-03-06 13:00:00 11.5 26 Norte 50 Noroeste 0 956.7 0.8 58
2020-03-06 12:00:00 10.7 23 Norte 49 Norte 0 956.3 1.4 63
2020-03-06 11:00:00 9.5 26 Norte 51 Norte 0 956.1 1.6 71
2020-03-06 10:00:00 8.3 24 Norte 53 Norte 0 955.9 1.3 82
2020-03-06 09:00:00 8 20 Noroeste 42 Noroeste 0 954.9 0.4 89
2020-03-06 08:00:00 7.9 11 Noroeste 26 Noroeste 0 954.5 -0.2 100
2020-03-06 07:00:00 8.1 7 Noroeste 22 Oeste 0 954.6 -0.4 98
2020-03-06 06:00:00 8.2 6 Noroeste 17 Noroeste 0 954.5 -0.9 94
2020-03-06 05:00:00 8.2 9 Noroeste 26 Noroeste 0 954.7 -0.6 94
2020-03-06 04:00:00 7.8 6 Noroeste 24 Oeste 0 955 0 94
2020-03-06 03:00:00 7.5 8 Noroeste 33 Norte 0 955.4 0.7 92
2020-03-06 02:00:00 7.7 13 Noroeste 39 Norte 0 955.3 0.8 92
2020-03-06 01:00:00 7.8 10 Norte 30 Noroeste 0 955 1 89
2020-03-06 00:00:00 8.3 11 Noroeste 36 Norte 0 954.7 1.2 87
2020-03-05 23:00:00 8.7 7 Noroeste 37 Norte 0 954.5 1.3 79
2020-03-05 22:00:00 9.4 8 Oeste 26 Noroeste 0 954 1.4 72
2020-03-05 21:00:00 10.2 10 Noroeste 30 Norte 0 953.5 1.4 71
2020-03-05 20:00:00 11.2 14 Noroeste 33 Noroeste 0 953.2 1.3 67
2020-03-05 19:00:00 12 5 Noroeste 41 Noroeste 0 952.6 0.8 62
2020-03-05 18:00:00 14 14 Noroeste 39 Norte 0 952.1 0.3 53
2020-03-05 17:00:00 14.5 16 Noroeste 41 Noroeste 0 951.9 -0.5 55
2020-03-05 16:00:00 15 14 Noroeste 42 Noroeste 0 951.8 -0.5 53
2020-03-05 15:00:00 13.7 15 Noroeste 46 Norte 0 951.8 -0.7 58
2020-03-05 14:00:00 13.1 8 Noroeste 48 Norte 0 952.4 0 67
2020-03-05 13:00:00 12.3 21 Norte 46 Norte 0 952.3 0.4 76
2020-03-05 12:00:00 11 14 Noroeste 37 Noroeste 0.2 952.5 0.9 100
2020-03-05 11:00:00 11.2 12 Oeste 27 Noroeste 0 952.4 1.2 100
2020-03-05 10:00:00 11.7 14 Oeste 32 Oeste 0 951.9 0.5 90
2020-03-05 09:00:00 10.8 16 Oeste 28 Noroeste 0 951.6 0 98
2020-03-05 08:00:00 10.5 15 Noroeste 27 Noroeste 0 951.2 -0.5 100
2020-03-05 07:00:00 10.1 11 Noroeste 31 Noroeste 0 951.4 -1 100
2020-03-05 06:00:00 9.4 4 Oeste 22 Norte 0 951.6 -1.5 100
2020-03-05 05:00:00 9.8 7 Noroeste 24 Norte 0 951.7 -2.1 100
2020-03-05 04:00:00 10.2 12 Norte 29 Norte 0 952.4 -1.9 100
2020-03-05 03:00:00 10.8 7 Noroeste 27 Norte 0 953.1 -1.7 100
2020-03-05 02:00:00 11.3 15 Norte 30 Norte 0 953.8 -1.4 100
2020-03-05 01:00:00 11.6 20 Norte 31 Norte 0 954.3 -1.1 100
2020-03-05 00:00:00 12.1 18 Norte 26 Norte 0 954.8 -0.6 88